Terminal Aerodrome Forecast
Issued by NWS Omaha/Valley, NE

Home | Current Version | Previous Version | Graphics & Text | Print | Product List | Glossary On
Versions: 1 2 3 4 5 6 7 8 9 10 11 12 13 14 15 16 17 18 19
000
FTUS43 KOAX 261253 AAA
TAFOFK
TAF AMD
KOFK 261253Z 2613/2712 10007KT P6SM VCSH SCT050 OVC080
      TEMPO 2613/2614 -SHRA BKN005
     FM261400 13007KT P6SM VCSH BKN025 OVC060
     FM261800 06007KT P6SM VCSH OVC025
      TEMPO 2618/2620 4SM -TSRA OVC015CB
     FM270000 02012KT P6SM BKN035
     FM270300 01007KT P6SM SCT040=

USA.gov is the U.S. government's official web portal to all federal, state and local government web resources and services.